createdAt,value
2023-03-06T00:00:54.256Z,4.10
2023-03-06T00:03:24.012Z,2.65
2023-03-06T00:05:55.662Z,8.23
2023-03-06T00:08:25.169Z,3.85
2023-03-06T00:10:54.633Z,6.63
2023-03-06T00:13:30.174Z,3.53
2023-03-06T00:16:01.639Z,5.07
2023-03-06T00:18:30.806Z,3.33
2023-03-06T00:21:00.476Z,3.20
2023-03-06T00:23:29.653Z,6.53
2023-03-06T00:25:59.063Z,5.95
2023-03-06T00:28:31.025Z,9.32
2023-03-06T00:31:00.595Z,6.07
2023-03-06T00:33:30.920Z,5.78
2023-03-06T00:36:00.379Z,5.47
2023-03-06T00:38:33.543Z,3.63
2023-03-06T00:41:10.969Z,3.85
2023-03-06T00:43:41.484Z,5.93
2023-03-06T00:46:11.036Z,4.45
2023-03-06T00:48:41.659Z,5.95
2023-03-06T00:51:13.850Z,8.95
2023-03-06T00:53:43.185Z,8.02
2023-03-06T00:56:12.553Z,4.28
2023-03-06T00:58:43.227Z,8.70
2023-03-06T01:01:12.774Z,7.47
2023-03-06T01:03:41.835Z,4.07
2023-03-06T01:06:11.420Z,2.35
2023-03-06T01:08:40.484Z,3.72
2023-03-06T01:11:09.838Z,6.45
2023-03-06T01:13:39.319Z,2.47
2023-03-06T01:16:13.550Z,4.63
2023-03-06T01:18:43.309Z,6.70
2023-03-06T01:21:13.350Z,8.38
2023-03-06T01:23:42.897Z,3.53
2023-03-06T01:26:12.722Z,5.85
2023-03-06T01:28:41.855Z,3.05
2023-03-06T01:31:12.982Z,4.65
2023-03-06T01:33:42.354Z,4.78
2023-03-06T01:36:14.104Z,2.72
2023-03-06T01:38:43.396Z,4.57
2023-03-06T01:41:15.821Z,3.05
2023-03-06T01:43:47.289Z,5.20
2023-03-06T01:46:27.279Z,5.67
2023-03-06T01:48:59.009Z,3.72
2023-03-06T01:51:34.409Z,3.57
2023-03-06T01:54:09.985Z,4.28
2023-03-06T01:56:41.932Z,3.05
2023-03-06T01:59:12.028Z,8.73
2023-03-06T02:01:44.974Z,3.83
2023-03-06T02:04:14.892Z,2.92
2023-03-06T02:06:46.296Z,6.53
2023-03-06T02:11:46.405Z,4.82
2023-03-06T02:14:18.379Z,3.50
2023-03-06T02:16:50.726Z,14.68
2023-03-06T02:19:33.704Z,5.18
2023-03-06T02:22:03.767Z,3.85
2023-03-06T02:24:41.885Z,4.38
2023-03-06T02:27:15.068Z,6.63
2023-03-06T02:29:45.706Z,6.63
2023-03-06T02:32:15.165Z,3.05
2023-03-06T02:34:53.068Z,3.17
2023-03-06T02:37:23.209Z,3.13
2023-03-06T02:39:58.833Z,5.30
2023-03-06T02:42:30.665Z,2.90
2023-03-06T02:45:04.350Z,5.47
2023-03-06T02:47:34.044Z,5.38
2023-03-06T02:50:03.227Z,2.97
2023-03-06T02:52:32.601Z,3.00
2023-03-06T02:55:01.787Z,9.32
2023-03-06T02:57:32.690Z,5.57
2023-03-06T03:00:02.208Z,8.68
2023-03-06T03:02:32.469Z,5.10
2023-03-06T03:05:01.748Z,4.07
2023-03-06T03:07:32.160Z,2.42
2023-03-06T03:10:01.370Z,2.47
2023-03-06T03:12:33.175Z,4.47
2023-03-06T03:15:02.386Z,3.03
2023-03-06T03:17:31.749Z,3.80
2023-03-06T03:20:01.038Z,3.10
2023-03-06T03:22:32.369Z,3.23
2023-03-06T03:25:01.597Z,6.55
2023-03-06T03:27:32.476Z,3.50
2023-03-06T03:33:35.299Z,3.33
2023-03-06T03:36:07.237Z,5.50
2023-03-06T03:38:39.690Z,2.47
2023-03-06T03:41:09.438Z,3.30
2023-03-06T03:43:40.300Z,3.65
2023-03-06T03:46:09.918Z,8.17
2023-03-06T03:48:39.416Z,3.20
2023-03-06T03:53:43.520Z,5.03
2023-03-06T03:56:15.767Z,4.67
2023-03-06T03:58:55.385Z,5.10
2023-03-06T04:01:26.393Z,3.53
2023-03-06T04:03:56.506Z,7.40
2023-03-06T04:06:25.995Z,3.00
2023-03-06T04:08:55.401Z,6.68
2023-03-06T04:11:26.063Z,6.90
2023-03-06T04:16:27.291Z,5.67
2023-03-06T04:18:57.686Z,7.88
2023-03-06T04:21:27.214Z,5.32
2023-03-06T04:23:56.753Z,3.13
2023-03-06T04:26:26.188Z,3.35
2023-03-06T04:28:55.694Z,4.22
2023-03-06T04:31:26.770Z,3.47
2023-03-06T04:33:56.065Z,3.00
2023-03-06T04:36:29.782Z,5.07
2023-03-06T04:39:03.622Z,6.17
2023-03-06T04:41:34.960Z,3.97
2023-03-06T04:44:04.895Z,2.78
2023-03-06T04:46:36.289Z,3.90
2023-03-06T04:49:05.564Z,3.97
2023-03-06T04:51:36.821Z,4.72
2023-03-06T04:54:06.581Z,3.50
2023-03-06T04:56:35.964Z,5.68
2023-03-06T04:59:05.434Z,4.60
2023-03-06T05:01:36.167Z,8.25
2023-03-06T05:04:05.587Z,5.80
2023-03-06T05:06:35.070Z,9.25
2023-03-06T05:09:04.309Z,5.45
2023-03-06T05:11:33.706Z,4.50
2023-03-06T05:14:02.916Z,5.53
2023-03-06T05:16:32.413Z,5.18
2023-03-06T05:19:03.002Z,8.97
2023-03-06T05:21:32.502Z,4.82
2023-03-06T05:24:01.742Z,5.05
2023-03-06T05:26:31.334Z,7.22
2023-03-06T05:29:00.389Z,5.47
2023-03-06T05:31:29.868Z,6.32
2023-03-06T05:33:59.574Z,8.15
2023-03-06T05:36:30.385Z,6.47
2023-03-06T05:38:59.705Z,10.27
2023-03-06T05:41:29.119Z,4.05
2023-03-06T05:43:58.894Z,4.78
2023-03-06T05:46:28.345Z,9.55
2023-03-06T05:48:58.556Z,5.82
2023-03-06T05:51:29.470Z,8.93
2023-03-06T05:53:58.683Z,7.73
2023-03-06T05:56:28.390Z,8.55
2023-03-06T05:58:57.670Z,9.50
2023-03-06T06:01:28.766Z,6.35
2023-03-06T06:03:57.979Z,9.57
2023-03-06T06:06:27.328Z,12.10
2023-03-06T06:08:57.901Z,10.07
2023-03-06T06:11:27.441Z,5.43
2023-03-06T06:13:56.620Z,7.47
2023-03-06T06:16:26.122Z,18.48
2023-03-06T06:18:55.177Z,14.43
2023-03-06T06:21:24.654Z,9.32
2023-03-06T06:23:53.682Z,9.43
2023-03-06T06:26:24.824Z,11.00
2023-03-06T06:28:54.018Z,8.40
2023-03-06T06:31:23.987Z,10.13
2023-03-06T06:33:53.295Z,11.68
2023-03-06T06:36:23.089Z,6.32
2023-03-06T06:38:52.629Z,7.88
2023-03-06T06:44:16.249Z,11.37
2023-03-06T06:49:36.085Z,6.80
2023-03-06T06:52:06.111Z,7.65
2023-03-06T06:54:35.504Z,11.18
2023-03-06T06:57:06.412Z,10.07
2023-03-06T06:59:35.864Z,9.32
2023-03-06T07:02:05.920Z,6.03
2023-03-06T07:04:35.617Z,6.03
2023-03-06T07:07:04.974Z,8.77
2023-03-06T07:09:34.478Z,4.78
2023-03-06T07:12:05.448Z,11.35
2023-03-06T07:14:34.686Z,6.35
2023-03-06T07:17:04.039Z,6.50
2023-03-06T07:19:33.694Z,4.15
2023-03-06T07:22:04.211Z,13.50
2023-03-06T07:24:33.341Z,3.78
2023-03-06T07:27:03.007Z,10.02
2023-03-06T07:29:34.612Z,16.73
2023-03-06T07:32:04.248Z,12.05
2023-03-06T07:34:33.510Z,7.97
2023-03-06T07:37:03.187Z,10.70
2023-03-06T07:39:32.377Z,9.18
2023-03-06T07:42:01.706Z,9.73
2023-03-06T07:44:32.830Z,12.27
2023-03-06T07:47:02.968Z,7.32
2023-03-06T07:49:32.204Z,7.95
2023-03-06T07:52:03.614Z,3.53
2023-03-06T07:54:32.831Z,4.57
2023-03-06T07:57:02.172Z,3.25
2023-03-06T07:59:33.164Z,7.38
2023-03-06T08:02:02.687Z,8.80
2023-03-06T08:04:31.770Z,8.40
2023-03-06T08:07:01.607Z,5.35
2023-03-06T08:09:30.903Z,5.15
2023-03-06T08:12:00.596Z,4.07
2023-03-06T08:14:30.099Z,5.32
2023-03-06T08:17:01.063Z,6.55
2023-03-06T08:19:30.281Z,6.68
2023-03-06T08:21:59.648Z,5.25
2023-03-06T08:24:28.832Z,12.13
2023-03-06T08:26:58.213Z,4.97
2023-03-06T08:29:27.776Z,7.22
2023-03-06T08:31:57.126Z,6.38
2023-03-06T08:34:28.203Z,7.95
2023-03-06T08:36:57.752Z,2.88
2023-03-06T08:39:26.801Z,5.60
2023-03-06T08:41:56.131Z,4.95
2023-03-06T08:44:25.191Z,5.77
2023-03-06T08:46:54.671Z,4.20
2023-03-06T08:49:24.322Z,6.30
2023-03-06T08:51:55.526Z,2.97
2023-03-06T08:54:24.679Z,9.65
2023-03-06T08:56:54.357Z,9.35
2023-03-06T08:59:24.737Z,2.80
2023-03-06T09:01:55.639Z,5.43
2023-03-06T09:04:24.968Z,9.80
2023-03-06T09:06:55.808Z,7.65
2023-03-06T09:09:25.006Z,6.70
2023-03-06T09:11:54.974Z,7.70
2023-03-06T09:14:24.202Z,7.88
2023-03-06T09:16:53.665Z,2.70
2023-03-06T09:19:22.865Z,14.90
2023-03-06T09:21:54.049Z,2.40
2023-03-06T09:24:24.747Z,4.35
2023-03-06T09:26:54.180Z,4.20
2023-03-06T09:29:23.276Z,3.37
2023-03-06T09:31:52.934Z,3.58
2023-03-06T09:34:22.751Z,4.55
2023-03-06T09:36:57.044Z,3.30
2023-03-06T09:39:28.643Z,6.38
2023-03-06T09:41:58.698Z,3.00
2023-03-06T09:47:12.415Z,3.88
2023-03-06T09:49:54.093Z,6.72
2023-03-06T09:52:32.557Z,8.13
2023-03-06T09:55:11.927Z,3.67
2023-03-06T09:57:46.560Z,3.28
2023-03-06T10:00:20.821Z,3.30
2023-03-06T10:02:54.696Z,3.50
2023-03-06T10:05:34.288Z,5.70
2023-03-06T10:08:07.834Z,2.22
2023-03-06T10:10:45.899Z,3.78
2023-03-06T10:13:20.888Z,10.23
2023-03-06T10:15:51.273Z,4.90
2023-03-06T10:18:20.731Z,4.25
2023-03-06T10:20:56.112Z,6.93
2023-03-06T10:23:43.200Z,4.30
2023-03-06T10:26:18.068Z,5.40
2023-03-06T10:28:53.927Z,3.38
2023-03-06T10:31:25.875Z,3.17
2023-03-06T10:33:59.100Z,2.03
2023-03-06T10:36:31.146Z,4.43
2023-03-06T10:39:01.031Z,4.72
2023-03-06T10:41:32.909Z,5.50
2023-03-06T10:44:26.478Z,8.32
2023-03-06T10:46:56.425Z,4.13
2023-03-06T10:49:30.166Z,6.93
2023-03-06T10:52:02.951Z,5.15
2023-03-06T10:54:34.556Z,3.58
2023-03-06T10:57:25.948Z,3.42
2023-03-06T10:59:57.300Z,3.17
2023-03-06T11:02:30.013Z,4.25
2023-03-06T11:05:01.138Z,2.38
2023-03-06T11:07:31.933Z,2.67
2023-03-06T11:10:08.826Z,5.75
2023-03-06T11:12:42.679Z,4.65
2023-03-06T11:15:22.380Z,10.57
2023-03-06T11:17:58.964Z,4.22
2023-03-06T11:20:48.513Z,7.05
2023-03-06T11:23:23.088Z,9.00
2023-03-06T11:25:57.357Z,4.13
2023-03-06T11:28:33.999Z,7.80
2023-03-06T11:31:09.781Z,5.03
2023-03-06T11:33:46.475Z,9.43
2023-03-06T11:36:24.066Z,4.90
2023-03-06T11:38:54.848Z,2.10
2023-03-06T11:41:34.076Z,5.53
2023-03-06T11:44:13.965Z,4.53
2023-03-06T11:46:49.445Z,8.35
2023-03-06T11:49:25.579Z,8.75
2023-03-06T11:51:58.783Z,5.18
2023-03-06T11:54:28.309Z,4.30
2023-03-06T11:57:02.878Z,10.30
2023-03-06T12:00:02.187Z,6.40
2023-03-06T12:02:50.891Z,6.57
2023-03-06T12:05:35.585Z,4.25
2023-03-06T12:08:34.554Z,7.30
2023-03-06T12:11:12.505Z,8.32
2023-03-06T12:14:03.999Z,5.43
2023-03-06T12:16:59.539Z,3.95
2023-03-06T12:19:52.239Z,4.53
2023-03-06T12:22:40.304Z,4.32
2023-03-06T12:25:29.361Z,6.20
2023-03-06T12:28:13.659Z,5.60
2023-03-06T12:31:02.379Z,4.80
2023-03-06T12:33:42.293Z,3.97
2023-03-06T12:36:25.838Z,3.50
2023-03-06T12:39:04.763Z,5.65
2023-03-06T12:41:44.813Z,5.53
2023-03-06T12:44:39.414Z,2.42
2023-03-06T12:47:13.876Z,7.80
2023-03-06T12:49:49.809Z,3.53
2023-03-06T12:52:30.341Z,3.42
2023-03-06T12:55:06.946Z,4.22
2023-03-06T12:57:38.523Z,5.65
2023-03-06T13:00:11.374Z,6.60
2023-03-06T13:03:07.891Z,9.18
2023-03-06T13:05:58.908Z,9.38
2023-03-06T13:09:00.229Z,6.05
2023-03-06T13:11:48.067Z,3.45
2023-03-06T13:14:26.251Z,3.33
2023-03-06T13:16:55.718Z,6.95
2023-03-06T13:19:27.020Z,5.32
2023-03-06T13:22:14.659Z,3.72
2023-03-06T13:24:45.555Z,6.60
2023-03-06T13:28:00.389Z,2.67
2023-03-06T13:30:46.491Z,3.33
2023-03-06T13:33:54.870Z,5.82
2023-03-06T13:36:32.017Z,5.57
2023-03-06T13:39:19.599Z,1.95
2023-03-06T13:42:01.302Z,4.93
2023-03-06T13:44:51.850Z,2.95
2023-03-06T13:48:02.817Z,4.78
2023-03-06T13:50:38.330Z,4.22
2023-03-06T13:53:41.284Z,4.18
2023-03-06T13:56:42.710Z,3.53
2023-03-06T13:59:40.133Z,5.75
2023-03-06T14:02:36.349Z,4.72
2023-03-06T14:05:13.418Z,5.35
2023-03-06T14:07:45.973Z,5.25
2023-03-06T14:10:24.848Z,4.68
2023-03-06T14:13:04.513Z,6.10
2023-03-06T14:15:43.151Z,2.92
2023-03-06T14:18:20.825Z,3.40
2023-03-06T14:20:55.735Z,4.63
2023-03-06T14:23:29.621Z,6.03
2023-03-06T14:26:06.398Z,2.92
2023-03-06T14:28:37.164Z,2.00
2023-03-06T14:31:07.620Z,4.97
2023-03-06T14:33:44.678Z,5.97
2023-03-06T14:36:17.607Z,8.57
2023-03-06T14:38:51.543Z,5.25
2023-03-06T14:41:26.928Z,3.92
2023-03-06T14:44:19.459Z,5.72
2023-03-06T14:46:50.786Z,9.40
2023-03-06T14:49:23.671Z,10.23
2023-03-06T14:51:55.450Z,7.40
2023-03-06T14:54:29.731Z,6.78
2023-03-06T14:57:03.849Z,8.48
2023-03-06T14:59:44.612Z,8.18
2023-03-06T15:02:21.536Z,8.32
2023-03-06T15:04:55.702Z,6.43
2023-03-06T15:07:29.212Z,9.43
2023-03-06T15:10:00.733Z,7.28
2023-03-06T15:12:39.499Z,9.43
2023-03-06T15:15:41.443Z,8.93
2023-03-06T15:18:33.854Z,8.68
2023-03-06T15:21:18.215Z,7.95
2023-03-06T15:23:49.159Z,4.32
2023-03-06T15:26:29.379Z,6.13
2023-03-06T15:29:09.082Z,8.82
2023-03-06T15:34:32.437Z,4.95
2023-03-06T15:37:19.956Z,15.85
2023-03-06T15:40:06.778Z,10.60
2023-03-06T15:42:40.908Z,13.65
2023-03-06T15:47:48.405Z,14.27
2023-03-06T15:50:22.068Z,12.35
2023-03-06T15:52:54.306Z,13.20
2023-03-06T15:55:26.027Z,17.52
2023-03-06T15:58:00.799Z,17.20
2023-03-06T16:00:34.179Z,22.08
2023-03-06T16:03:05.934Z,14.68
2023-03-06T16:05:35.937Z,14.95
2023-03-06T16:08:11.178Z,18.92
2023-03-06T16:10:43.965Z,17.42
2023-03-06T16:13:17.223Z,17.45
2023-03-06T16:15:49.752Z,15.32
2023-03-06T16:18:53.067Z,22.75
2023-03-06T16:21:24.084Z,12.07
2023-03-06T16:23:54.987Z,12.32
2023-03-06T16:26:30.715Z,11.35
2023-03-06T16:29:00.495Z,12.77
2023-03-06T16:31:30.003Z,14.75
2023-03-06T16:33:59.039Z,18.60
2023-03-06T16:36:30.204Z,10.18
2023-03-06T16:39:00.846Z,17.20
2023-03-06T16:41:33.117Z,14.07
2023-03-06T16:44:02.464Z,32.60
2023-03-06T16:46:33.104Z,33.40
2023-03-06T16:49:06.126Z,31.75
2023-03-06T16:51:39.153Z,25.33
2023-03-06T16:54:09.694Z,42.70
2023-03-06T16:56:39.698Z,28.67
2023-03-06T16:59:09.216Z,23.35
2023-03-06T17:01:39.212Z,24.73
2023-03-06T17:04:08.419Z,26.23
2023-03-06T17:06:38.506Z,19.40
2023-03-06T17:09:10.980Z,20.35
2023-03-06T17:11:43.076Z,27.63
2023-03-06T17:14:12.669Z,26.42
2023-03-06T17:16:42.588Z,25.90
2023-03-06T17:19:15.549Z,28.38
2023-03-06T17:21:45.477Z,31.55
2023-03-06T17:24:16.354Z,29.48
2023-03-06T17:26:47.001Z,25.15
2023-03-06T17:29:16.423Z,31.75
2023-03-06T17:31:47.271Z,31.05
2023-03-06T17:34:16.606Z,25.25
2023-03-06T17:36:45.914Z,26.65
2023-03-06T17:39:16.399Z,25.73
2023-03-06T17:41:46.558Z,23.40
2023-03-06T17:44:16.542Z,18.15
2023-03-06T17:46:46.840Z,17.75
2023-03-06T17:49:16.451Z,13.98
2023-03-06T17:51:46.193Z,28.98
2023-03-06T17:54:17.012Z,25.00
2023-03-06T17:56:46.699Z,22.30
2023-03-06T17:59:16.009Z,18.65
2023-03-06T18:01:46.188Z,18.85
2023-03-06T18:06:44.785Z,21.70
2023-03-06T18:09:15.226Z,20.65
2023-03-06T18:11:44.890Z,19.52
2023-03-06T18:14:14.165Z,40.63
2023-03-06T18:16:43.959Z,31.40
2023-03-06T18:19:14.409Z,24.15
2023-03-06T18:21:44.407Z,18.83
2023-03-06T18:24:15.019Z,16.67
2023-03-06T18:26:44.533Z,15.43
2023-03-06T18:29:13.638Z,17.08
2023-03-06T18:31:44.867Z,22.65
2023-03-06T18:34:17.539Z,19.70
2023-03-06T18:36:50.777Z,22.77
2023-03-06T18:39:22.448Z,26.23
2023-03-06T18:41:52.259Z,19.85
2023-03-06T18:44:24.022Z,16.95
2023-03-06T18:46:53.587Z,23.35
2023-03-06T18:49:22.766Z,16.58
2023-03-06T18:51:53.131Z,19.20
2023-03-06T18:56:54.178Z,16.95
2023-03-06T18:59:23.625Z,14.85
2023-03-06T19:01:57.517Z,14.68
2023-03-06T19:04:27.466Z,19.85
2023-03-06T19:06:57.663Z,18.38
2023-03-06T19:09:30.397Z,19.63
2023-03-06T19:12:00.355Z,19.60
2023-03-06T19:14:29.944Z,24.02
2023-03-06T19:16:59.336Z,16.58
2023-03-06T19:19:29.922Z,17.00
2023-03-06T19:22:00.231Z,19.83
2023-03-06T19:24:31.254Z,22.60
2023-03-06T19:27:00.797Z,19.23
2023-03-06T19:29:29.898Z,16.92
2023-03-06T19:31:59.734Z,19.20
2023-03-06T19:34:28.973Z,21.58
2023-03-06T19:36:58.667Z,27.23
2023-03-06T19:39:27.791Z,33.92
2023-03-06T19:42:00.783Z,31.65
2023-03-06T19:44:34.052Z,27.02
2023-03-06T19:47:06.843Z,31.92
2023-03-06T19:49:38.136Z,28.33
2023-03-06T19:52:08.269Z,22.92
2023-03-06T19:54:37.855Z,18.92
2023-03-06T19:57:08.935Z,17.65
2023-03-06T19:59:38.225Z,21.02
2023-03-06T20:02:08.038Z,17.15
2023-03-06T20:04:39.442Z,19.08
2023-03-06T20:07:08.954Z,17.05
2023-03-06T20:09:38.412Z,19.48
2023-03-06T20:12:09.364Z,23.25
2023-03-06T20:14:39.814Z,23.05
2023-03-06T20:17:09.798Z,20.48
2023-03-06T20:19:40.580Z,24.52
2023-03-06T20:22:10.588Z,21.98
2023-03-06T20:24:40.362Z,26.63
2023-03-06T20:27:12.303Z,29.90
2023-03-06T20:29:44.978Z,27.45
2023-03-06T20:32:15.403Z,43.22
2023-03-06T20:34:46.633Z,34.65
2023-03-06T20:37:16.094Z,31.63
2023-03-06T20:39:48.345Z,54.38
2023-03-06T20:42:19.227Z,49.00
2023-03-06T20:44:49.110Z,54.40
2023-03-06T20:47:18.598Z,58.50
2023-03-06T20:49:47.685Z,44.97
2023-03-06T20:52:18.919Z,46.20
2023-03-06T20:54:48.127Z,47.20
2023-03-06T20:57:19.097Z,42.97
2023-03-06T20:59:48.305Z,39.38
2023-03-06T21:02:17.995Z,39.17
2023-03-06T21:04:47.290Z,43.17
2023-03-06T21:07:17.051Z,49.75
2023-03-06T21:09:47.988Z,43.60
2023-03-06T21:12:19.005Z,38.38
2023-03-06T21:14:48.418Z,40.38
2023-03-06T21:17:18.873Z,38.13
2023-03-06T21:19:48.040Z,38.72
2023-03-06T21:22:17.403Z,29.75
2023-03-06T21:24:46.680Z,30.10
2023-03-06T21:27:16.115Z,27.67
2023-03-06T21:29:48.030Z,36.08
2023-03-06T21:32:17.977Z,36.40
2023-03-06T21:34:47.042Z,217.57
2023-03-06T21:37:16.560Z,58.75
2023-03-06T21:39:45.620Z,52.08
2023-03-06T21:42:15.215Z,43.08
2023-03-06T21:44:44.513Z,36.75
2023-03-06T21:47:15.410Z,40.55
2023-03-06T21:49:44.955Z,42.87
2023-03-06T21:52:14.335Z,41.20
2023-03-06T21:54:43.530Z,45.50
2023-03-06T21:57:13.247Z,46.42
2023-03-06T21:59:42.504Z,61.13
2023-03-06T22:02:12.584Z,52.15
2023-03-06T22:04:44.277Z,56.13
2023-03-06T22:07:13.701Z,60.67
2023-03-06T22:09:42.779Z,57.83
2023-03-06T22:12:12.571Z,55.83
2023-03-06T22:14:44.115Z,55.83
2023-03-06T22:17:13.714Z,49.03
2023-03-06T22:19:44.174Z,55.03
2023-03-06T22:22:13.580Z,46.60
2023-03-06T22:24:42.719Z,42.22
2023-03-06T22:27:12.259Z,50.50
2023-03-06T22:29:41.477Z,53.30
2023-03-06T22:32:10.945Z,52.22
2023-03-06T22:34:40.439Z,51.83
2023-03-06T22:37:11.306Z,52.20
2023-03-06T22:39:40.598Z,60.07
2023-03-06T22:42:09.986Z,49.35
2023-03-06T22:44:39.646Z,53.95
2023-03-06T22:47:09.012Z,48.95
2023-03-06T22:49:39.544Z,55.65
2023-03-06T22:52:10.631Z,58.93
2023-03-06T22:54:40.220Z,53.90
2023-03-06T22:57:09.794Z,53.22
2023-03-06T22:59:38.901Z,55.93
2023-03-06T23:02:08.394Z,43.15
2023-03-06T23:04:37.512Z,46.13
2023-03-06T23:07:07.095Z,48.13
2023-03-06T23:09:37.727Z,50.88
2023-03-06T23:12:25.733Z,50.30
2023-03-06T23:15:13.814Z,46.07
2023-03-06T23:18:02.276Z,41.97
2023-03-06T23:20:50.170Z,45.37
2023-03-06T23:23:39.075Z,53.83
2023-03-06T23:26:11.308Z,52.43
2023-03-06T23:28:41.638Z,51.87
2023-03-06T23:31:12.202Z,44.60
2023-03-06T23:33:42.725Z,49.23
2023-03-06T23:36:13.451Z,48.30
2023-03-06T23:38:43.309Z,52.70
2023-03-06T23:41:16.651Z,48.53
2023-03-06T23:43:46.548Z,50.97
2023-03-06T23:46:16.163Z,55.60
2023-03-06T23:48:46.765Z,53.70
2023-03-06T23:51:18.424Z,51.20
2023-03-06T23:53:49.550Z,60.87
2023-03-06T23:56:20.380Z,54.13
2023-03-06T23:58:49.937Z,48.57
